Connexion

8km

8 Km Trail de l'Abbaye du 23/06/18 (Réelle 7,5)
Rang Dossard Nom Prénom Temps Cat Rang Cat Ecart Ecart Cat Club Vitesse Km/h Temps au Km
1 69 MAILLARD Florent 00:25:56 SEM 1 00:00:00 00:00:00 Mouy Atac 17,352 03:27
2 26 ROSSELANGE Florian 00:27:09 SEM 2 00:01:13 00:01:13 S/L CA BRIVE 16,575 03:37
3 30 JOUNIAUX Eric 00:30:47 V1M 1 00:04:51 00:00:00 14,618 04:06
4 76 LONGÉ Sébastien 00:31:12 SEM 3 00:05:16 00:05:16 14,423 04:10
5 18 BULEUX Fabrice 00:31:30 V1M 2 00:05:34 00:00:43 Bouc 14,286 04:12
6 1 GARRET Martin 00:31:47 SEM 4 00:05:51 00:05:51 14,158 04:14
7 11 CRAPANZANO Alexandre 00:32:21 SEM 5 00:06:25 00:06:25 ACP BRETEUIL 13,910 04:19
8 7 BLESSES Sylvain 00:33:13 SEM 6 00:07:17 00:07:17 13,547 04:26
9 73 LECOMTE Stephane 00:33:22 V1M 3 00:07:26 00:02:35 13,487 04:27
10 41 TOPART Christophe 00:34:12 V1M 4 00:08:16 00:03:25 13,158 04:34
11 17 RENALD MAQUAIRE 00:34:20 V1M 5 00:08:24 00:03:33 13,107 04:35
12 27 FERLAUD William 00:34:21 JUM 1 00:08:25 00:00:00 Saint Just Athlétisme 13,100 04:35
13 39 LEMOINE Timothée 00:34:37 SEM 7 00:08:41 00:08:41 13,000 04:37
14 25 BRUZEAU Nicolas 00:34:56 CAM 1 00:09:00 00:00:00 12,882 04:39
15 67 LEVASSEUR Armand 00:35:48 SEM 8 00:09:52 00:09:52 Mouy Atac 12,570 04:46
16 60 BOIVIN Stéphane 00:36:20 V1M 6 00:10:24 00:05:33 12,385 04:51
17 46 POULAIN Robert 00:36:23 V2M 1 00:10:27 00:00:00 Montdidier Athletix 12,368 04:51
18 2 TANGUY Johan 00:38:09 V1M 7 00:12:13 00:07:22 Saint Just Athlétisme 11,796 05:05
19 56 COLLARD Bruno 00:38:29 V1M 8 00:12:33 00:07:42 11,693 05:08
20 55 DAVID Pierre 00:38:37 SEM 9 00:12:41 00:12:41 11,653 05:09
21 71 CAUSSANEL Charlene 00:38:57 SEF 1 00:13:01 00:00:00 ASPTT Compiegne 11,553 05:12
22 52 LESIEUR Theo 00:39:03 CAM 2 00:13:07 00:04:07 11,524 05:12
23 4 HENWOOD mickael 00:39:04 SEM 10 00:13:08 00:13:08 11,519 05:13
24 44 HAMONIC PHILIPPE 00:39:10 V2M 2 00:13:14 00:02:47 11,489 05:13
25 15 KERVELLEC Maxime 00:39:17 SEM 11 00:13:21 00:13:21 11,455 05:14
26 50 ROBILLARD Nathan 00:40:27 ESM 1 00:14:31 00:00:00 11,125 05:24
27 61 CZABAN Vincent 00:40:36 V1M 9 00:14:40 00:09:49 11,084 05:25
28 5 MERCIER Arnaud 00:40:51 V1M 10 00:14:55 00:10:04 11,016 05:27
29 47 VANDEWEGHE Jean Marie 00:40:51 V2M 3 00:14:55 00:04:28 ACP BRETEUIL 11,016 05:27
30 24 TARENTE jean joseph 00:41:15 V1M 11 00:15:19 00:10:28 10,909 05:30
31 34 DESFORGES Florent 00:41:35 V1M 12 00:15:39 00:10:48 10,822 05:33
32 33 HEBERT Christophe 00:41:57 V2M 4 00:16:01 00:05:34 Montdidier athletix 10,727 05:36
33 53 ENCHE Emmanuel 00:42:10 V1M 13 00:16:14 00:11:23 10,672 05:37
34 36 CANNY Caroline 00:43:23 ESF 1 00:17:27 00:00:00 10,373 05:47
35 31 LE BORGNE Sandra 00:43:49 SEF 2 00:17:53 00:04:52 10,270 05:51
36 22 DELAME ISABELLE 00:44:02 V1F 1 00:18:06 00:00:00 10,220 05:52
37 66 WATTIER DENIS 00:44:31 V3M 1 00:18:35 00:00:00 AS AGNETZ ATHLETISME 10,109 05:56
38 68 FROMONT Cedric 00:44:38 SEM 12 00:18:42 00:18:42 Estree St Denis 10,082 05:57
39 54 ENCHE Patricia 00:44:42 V1F 2 00:18:46 00:00:40 10,067 05:58
40 58 MOREL Murielle 00:44:51 V2F 1 00:18:55 00:00:00 Verberie 10,033 05:59
41 49 LE VOURC'H Hervé 00:45:48 V2M 5 00:19:52 00:09:25 9,825 06:06
42 12 MAYMIR Carole 00:45:52 V1F 3 00:19:56 00:01:50 9,811 06:07
43 51 TRÉHOUX Guyliane 00:45:52 ESM 2 00:19:56 00:05:25 9,811 06:07
44 72 LINARD Julien 00:46:28 ESM 3 00:20:32 00:06:01 9,684 06:12
45 45 FAGARD Rémi 00:46:37 SEM 13 00:20:41 00:20:41 9,653 06:13
46 32 SONNECK Sébastien 00:47:02 V1M 14 00:21:06 00:16:15 9,568 06:16
47 42 JALABERT ophelie 00:47:43 SEF 3 00:21:47 00:08:46 9,431 06:22
48 8 PHILIPPE Fabrice 00:48:04 V2M 6 00:22:08 00:11:41 Saint just athlétisme 9,362 06:25
49 77 MOLLENHAVER Kevin 00:48:10 SEM 14 00:22:14 00:22:14 9,343 06:25
50 14 COLNOT Sandrine 00:49:09 V1F 4 00:23:13 00:05:07 9,156 06:33
51 13 MARQUET laurent 00:49:10 V1M 15 00:23:14 00:18:23 S/L MONTATAIRE AC 9,153 06:33
52 3 DELAIRE Nicolas 00:49:10 SEM 15 00:23:14 00:23:14 9,153 06:33
53 74 LEGRAND Laurent 00:49:16 V2M 7 00:23:20 00:12:53 9,134 06:34
54 75 DARVILLE Clemence 00:49:21 V1F 5 00:23:25 00:05:19 9,119 06:35
55 10 PEDIAC Jerome 00:49:32 V1M 16 00:23:36 00:18:45 9,085 06:36
56 70 FAGARD Sonia 00:49:45 SEF 4 00:23:49 00:10:48 9,045 06:38
57 23 DELAME Cedric 00:50:11 V1M 17 00:24:15 00:19:24 8,967 06:41
58 48 LAVOINE Dimitri 00:51:21 SEM 16 00:25:25 00:25:25 8,763 06:51
59 37 GINGREAU Hélène 00:52:54 SEF 5 00:26:58 00:13:57 8,507 07:03
60 16 BAZIN Caroline 00:52:55 SEF 6 00:26:59 00:13:58 Saint Just Athlétisme 8,504 07:03
61 43 LE FLEM ewan 00:53:01 SEM 17 00:27:05 00:27:05 8,488 07:04
62 64 DAGNIAUX Alexandre 00:53:19 SEM 18 00:27:23 00:27:23 8,440 07:07
63 62 SANTUNE Delphine 00:53:24 V1F 6 00:27:28 00:09:22 8,427 07:07
64 59 BESOMI Dorothée 00:53:30 SEF 7 00:27:34 00:14:33 8,411 07:08
65 57 ZAMBONINI Déborah 00:53:35 SEF 8 00:27:39 00:14:38 8,398 07:09
66 6 MERCIER Camille 00:53:41 JUF 1 00:27:45 00:00:00 8,382 07:09
67 9 DELAHOCHE AUDREY 00:53:53 SEF 9 00:27:57 00:14:56 8,351 07:11
68 20 MOREAU Nathalie 00:54:01 V2F 2 00:28:05 00:09:10 les pas pressés 8,331 07:12
69 21 MOREAU Emmanuel 00:54:02 V1M 18 00:28:06 00:23:15 8,328 07:12
70 40 JULLIEN Emilie 00:54:09 SEF 10 00:28:13 00:15:12 8,310 07:13
71 19 RAGUET Gaëlle 00:55:11 SEF 11 00:29:15 00:16:14 8,155 07:21
72 63 STIEVENART Eloise 00:55:14 SEF 12 00:29:18 00:16:17 8,147 07:22
73 65 JALABERT Aurelien 00:58:57 SEM 19 00:33:01 00:33:01 7,634 07:52
74 38 PENELA Solange 01:01:08 SEF 13 00:35:12 00:22:11 7,361 08:09
75 29 ROELLINGER anne charlotte 01:05:11 V1F 7 00:39:15 00:21:09 6,904 08:41
76 28 COQUET david 01:05:11 V1M 19 00:39:15 00:34:24 6,904 08:41
77 35 CANNY ARMELE 01:05:25 SEF 14 00:39:29 00:26:28 6,879 08:43
Juillet 2018
Lun Mar Mer Jeu Ven Sam Dim
1
2
3
4
5
6
7
8
9
10
11
12
13
14
15
16
17
18
19
20
21
22
23
24
25
26
27
29
30
31